Terminal Aerodrome Forecast
Issued by NWS Wichita, KS

Home | Current Version | Previous Version | Text Only | Print | Product List | Glossary Off
Versions: 1 2 3 4 5 6 7 8 9 10 11 12 13 14 15 16

000
FTUS43 KICT 251120
TAFICT
TAF
KICT 251120Z 2512/2612 15009KT P6SM OVC200
     FM251400 18013KT P6SM OVC120
     FM252300 33013KT P6SM VCTS SCT035CB BKN080
     FM260000 36015G22KT P6SM VCTS OVC020CB
     FM260600 36018KT P6SM -SHRA VCTS BKN010CB
     FM260900 35016KT P6SM VCSH OVC010=

USA.gov is the U.S. government's official web portal to all federal, state and local government web resources and services.